createdAt,value
2022-09-20T00:00:28.864Z,0.87
2022-09-20T00:03:40.906Z,0.93
2022-09-20T00:06:52.806Z,1.50
2022-09-20T00:10:17.819Z,1.27
2022-09-20T00:13:29.851Z,1.00
2022-09-20T00:16:56.898Z,0.85
2022-09-20T00:19:56.877Z,0.80
2022-09-20T00:23:14.924Z,0.80
2022-09-20T00:26:28.897Z,1.07
2022-09-20T00:29:44.873Z,0.80
2022-09-20T00:32:59.859Z,1.27
2022-09-20T00:35:59.274Z,0.70
2022-09-20T00:39:11.943Z,0.80
2022-09-20T00:42:37.958Z,0.90
2022-09-20T00:45:50.002Z,1.13
2022-09-20T00:49:16.946Z,1.13
2022-09-20T00:52:28.987Z,1.10
2022-09-20T00:55:52.954Z,0.80
2022-09-20T00:59:05.991Z,0.97
2022-09-20T01:02:30.061Z,1.03
2022-09-20T01:05:42.010Z,0.70
2022-09-20T01:09:06.971Z,0.90
2022-09-20T01:12:19.062Z,0.73
2022-09-20T01:15:46.059Z,0.77
2022-09-20T01:18:58.060Z,0.97
2022-09-20T01:22:22.079Z,0.80
2022-09-20T01:25:34.124Z,0.67
2022-09-20T01:28:59.099Z,0.73
2022-09-20T01:32:11.210Z,0.60
2022-09-20T01:35:35.102Z,0.90
2022-09-20T01:38:53.139Z,0.70
2022-09-20T01:42:18.155Z,0.70
2022-09-20T01:45:34.139Z,0.90
2022-09-20T01:49:01.160Z,0.70
2022-09-20T01:52:34.143Z,0.93
2022-09-20T01:56:03.206Z,0.90
2022-09-20T01:59:24.732Z,0.90
2022-09-20T02:02:50.272Z,1.05
2022-09-20T02:06:26.179Z,0.80
2022-09-20T02:09:44.219Z,0.97
2022-09-20T02:13:18.189Z,0.90
2022-09-20T02:16:31.292Z,0.80
2022-09-20T02:19:59.237Z,0.93
2022-09-20T02:23:17.285Z,0.60
2022-09-20T02:26:47.239Z,0.60
2022-09-20T02:30:00.257Z,1.07
2022-09-20T02:33:43.289Z,0.70
2022-09-20T02:36:57.287Z,1.00
2022-09-20T02:40:23.407Z,0.60
2022-09-20T02:43:36.347Z,0.60
2022-09-20T02:47:00.335Z,0.60
2022-09-20T02:50:17.328Z,0.90
2022-09-20T02:53:43.357Z,0.73
2022-09-20T02:57:03.370Z,0.60
2022-09-20T03:00:28.460Z,0.80
2022-09-20T03:03:43.368Z,0.83
2022-09-20T03:07:07.419Z,0.60
2022-09-20T03:10:19.352Z,1.27
2022-09-20T03:13:45.409Z,0.80
2022-09-20T03:17:15.428Z,0.93
2022-09-20T03:20:45.426Z,0.70
2022-09-20T03:24:00.452Z,0.67
2022-09-20T03:27:24.468Z,0.57
2022-09-20T03:30:44.415Z,0.60
2022-09-20T03:34:09.471Z,1.03
2022-09-20T03:37:28.467Z,0.77
2022-09-20T03:40:55.569Z,0.30
2022-09-20T03:44:14.552Z,0.53
2022-09-20T03:47:46.548Z,0.70
2022-09-20T03:51:07.501Z,0.53
2022-09-20T03:54:47.550Z,0.53
2022-09-20T03:58:03.870Z,1.17
2022-09-20T04:01:30.628Z,0.60
2022-09-20T04:04:56.533Z,0.80
2022-09-20T04:08:09.558Z,0.83
2022-09-20T04:11:33.610Z,0.55
2022-09-20T04:14:45.598Z,0.70
2022-09-20T04:18:10.584Z,0.57
2022-09-20T04:21:24.640Z,0.63
2022-09-20T04:24:48.614Z,0.60
2022-09-20T04:28:00.653Z,0.85
2022-09-20T04:31:26.698Z,0.47
2022-09-20T04:34:39.727Z,0.73
2022-09-20T04:37:52.816Z,0.40
2022-09-20T04:41:07.644Z,0.75
2022-09-20T04:44:39.677Z,0.85
2022-09-20T04:48:07.675Z,0.50
2022-09-20T04:51:43.729Z,0.77
2022-09-20T04:55:14.716Z,0.57
2022-09-20T04:58:46.706Z,0.50
2022-09-20T05:02:08.791Z,0.83
2022-09-20T05:05:43.751Z,0.30
2022-09-20T05:08:59.292Z,0.90
2022-09-20T05:12:35.739Z,0.60
2022-09-20T05:15:59.797Z,0.60
2022-09-20T05:19:34.831Z,0.63
2022-09-20T05:22:52.789Z,0.70
2022-09-20T05:26:20.788Z,0.80
2022-09-20T05:29:32.799Z,1.20
2022-09-20T05:33:02.869Z,0.90
2022-09-20T05:36:19.836Z,0.87
2022-09-20T05:39:55.931Z,0.63
2022-09-20T05:43:07.828Z,1.67
2022-09-20T05:46:35.922Z,0.77
2022-09-20T05:49:50.877Z,0.57
2022-09-20T05:53:19.861Z,0.77
2022-09-20T05:56:33.902Z,0.70
2022-09-20T05:59:59.912Z,0.83
2022-09-20T06:03:14.905Z,0.87
2022-09-20T06:06:40.902Z,0.75
2022-09-20T06:09:54.929Z,0.77
2022-09-20T06:13:19.978Z,0.60
2022-09-20T06:16:31.951Z,0.77
2022-09-20T06:20:00.012Z,0.50
2022-09-20T06:23:13.977Z,0.80
2022-09-20T06:26:39.001Z,0.70
2022-09-20T06:29:53.987Z,0.73
2022-09-20T06:33:22.009Z,0.70
2022-09-20T06:36:39.735Z,0.60
2022-09-20T06:40:11.499Z,0.80
2022-09-20T06:43:12.028Z,0.90
2022-09-20T06:46:25.014Z,0.63
2022-09-20T06:49:25.024Z,1.17
2022-09-20T06:52:52.044Z,0.60
2022-09-20T06:56:09.097Z,0.87
2022-09-20T06:59:24.076Z,0.47
2022-09-20T07:02:24.122Z,0.60
2022-09-20T07:05:36.124Z,0.90
2022-09-20T07:08:36.141Z,0.50
2022-09-20T07:12:02.122Z,0.80
2022-09-20T07:15:02.141Z,0.50
2022-09-20T07:18:15.182Z,0.70
2022-09-20T07:21:27.162Z,0.70
2022-09-20T07:24:39.272Z,0.60
2022-09-20T07:27:53.261Z,0.67
2022-09-20T07:31:05.239Z,0.45
2022-09-20T07:34:17.248Z,0.90
2022-09-20T07:37:41.183Z,0.80
2022-09-20T07:40:41.212Z,0.90
2022-09-20T07:44:08.190Z,0.77
2022-09-20T07:47:20.223Z,0.63
2022-09-20T07:50:32.250Z,0.80
2022-09-20T07:53:47.276Z,0.80
2022-09-20T07:56:59.251Z,0.77
2022-09-20T08:00:12.272Z,0.60
2022-09-20T08:03:24.283Z,0.75
2022-09-20T08:06:36.300Z,1.10
2022-09-20T08:10:00.294Z,1.03
2022-09-20T08:16:27.342Z,0.67
2022-09-20T08:19:39.379Z,1.37
2022-09-20T08:23:12.547Z,0.50
2022-09-20T08:25:52.322Z,0.73
2022-09-20T08:29:16.374Z,0.53
2022-09-20T08:32:30.375Z,0.90
2022-09-20T08:35:42.375Z,0.57
2022-09-20T08:42:18.377Z,0.70
2022-09-20T08:45:37.483Z,0.70
2022-09-20T08:48:55.399Z,0.60
2022-09-20T08:52:10.391Z,0.70
2022-09-20T08:55:37.678Z,0.80
2022-09-20T08:58:46.443Z,0.97
2022-09-20T09:02:11.554Z,0.60
2022-09-20T09:05:24.477Z,0.87
2022-09-20T09:08:49.482Z,0.60
2022-09-20T09:11:49.484Z,0.60
2022-09-20T09:15:17.550Z,0.60
2022-09-20T09:18:31.610Z,0.50
2022-09-20T09:21:52.548Z,0.53
2022-09-20T09:24:52.547Z,0.43
2022-09-20T09:28:17.554Z,0.40
2022-09-20T09:31:39.660Z,0.80
2022-09-20T09:34:54.548Z,0.60
2022-09-20T09:38:18.572Z,1.10
2022-09-20T09:41:46.592Z,0.30
2022-09-20T09:44:47.606Z,0.70
2022-09-20T09:48:11.710Z,0.70
2022-09-20T09:51:31.599Z,0.50
2022-09-20T09:54:57.708Z,0.73
2022-09-20T09:58:09.679Z,0.70
2022-09-20T10:01:33.850Z,0.60
2022-09-20T10:04:58.627Z,0.57
2022-09-20T10:08:12.647Z,0.53
2022-09-20T10:11:40.667Z,0.55
2022-09-20T10:14:55.670Z,0.50
2022-09-20T10:18:21.689Z,0.63
2022-09-20T10:21:35.704Z,0.65
2022-09-20T10:25:03.822Z,0.50
2022-09-20T10:28:23.773Z,0.67
2022-09-20T10:31:50.754Z,0.50
2022-09-20T10:35:03.708Z,0.53
2022-09-20T10:38:32.734Z,0.57
2022-09-20T10:41:54.430Z,0.80
2022-09-20T10:45:53.321Z,0.60
2022-09-20T10:48:36.795Z,0.40
2022-09-20T10:52:01.796Z,0.83
2022-09-20T10:55:17.816Z,0.90
2022-09-20T10:58:56.804Z,0.47
2022-09-20T11:02:14.858Z,1.10
2022-09-20T11:05:41.823Z,1.00
2022-09-20T11:08:53.885Z,0.80
2022-09-20T11:12:18.830Z,1.20
2022-09-20T11:15:32.852Z,0.70
2022-09-20T11:18:58.924Z,0.87
2022-09-20T11:22:11.887Z,0.70
2022-09-20T11:25:36.983Z,1.00
2022-09-20T11:28:48.944Z,0.90
2022-09-20T11:32:13.994Z,0.80
2022-09-20T11:35:26.955Z,0.90
2022-09-20T11:38:53.257Z,0.60
2022-09-20T11:41:50.965Z,0.90
2022-09-20T11:45:15.021Z,0.60
2022-09-20T11:48:26.994Z,0.87
2022-09-20T11:51:57.097Z,0.80
2022-09-20T11:55:24.043Z,0.87
2022-09-20T11:58:48.985Z,0.57
2022-09-20T12:02:01.124Z,0.73
2022-09-20T12:05:26.021Z,0.60
2022-09-20T12:08:42.072Z,0.50
2022-09-20T12:12:06.077Z,0.73
2022-09-20T12:15:20.077Z,0.90
2022-09-20T12:18:51.062Z,0.80
2022-09-20T12:22:10.109Z,0.90
2022-09-20T12:25:41.143Z,0.80
2022-09-20T12:29:00.105Z,0.60
2022-09-20T12:32:31.104Z,0.50
2022-09-20T12:35:50.218Z,0.50
2022-09-20T12:39:26.297Z,0.47
2022-09-20T12:42:46.173Z,0.70
2022-09-20T12:46:17.327Z,1.00
2022-09-20T12:49:43.844Z,0.90
2022-09-20T12:53:17.242Z,0.93
2022-09-20T12:56:31.183Z,0.60
2022-09-20T12:59:43.339Z,0.93
2022-09-20T13:03:08.246Z,0.70
2022-09-20T13:06:45.227Z,0.65
2022-09-20T13:09:57.189Z,0.50
2022-09-20T13:13:26.240Z,0.87
2022-09-20T13:16:41.337Z,0.60
2022-09-20T13:20:06.250Z,0.90
2022-09-20T13:23:21.288Z,0.90
2022-09-20T13:26:45.327Z,0.87
2022-09-20T13:29:59.310Z,0.80
2022-09-20T13:33:24.285Z,0.70
2022-09-20T13:36:36.302Z,0.73
2022-09-20T13:40:00.378Z,0.50
2022-09-20T13:43:23.646Z,0.60
2022-09-20T13:46:37.375Z,0.67
2022-09-20T13:49:37.404Z,1.07
2022-09-20T13:53:08.359Z,0.70
2022-09-20T13:56:08.368Z,1.00
2022-09-20T13:59:32.353Z,0.43
2022-09-20T14:02:46.391Z,0.60
2022-09-20T14:06:11.411Z,0.70
2022-09-20T14:09:23.413Z,0.65
2022-09-20T14:12:47.421Z,0.63
2022-09-20T14:15:59.409Z,0.83
2022-09-20T14:19:26.448Z,0.87
2022-09-20T14:22:39.469Z,0.77
2022-09-20T14:25:51.463Z,0.70
2022-09-20T14:28:51.468Z,0.45
2022-09-20T14:32:16.475Z,0.50
2022-09-20T14:35:30.544Z,1.30
2022-09-20T14:38:46.551Z,0.73
2022-09-20T14:41:58.517Z,0.80
2022-09-20T14:45:22.666Z,0.40
2022-09-20T14:48:37.658Z,0.60
2022-09-20T14:52:03.569Z,0.80
2022-09-20T14:55:22.655Z,0.70
2022-09-20T14:58:49.596Z,0.80
2022-09-20T15:02:01.556Z,0.77
2022-09-20T15:05:26.569Z,0.90
2022-09-20T15:08:44.035Z,0.70
2022-09-20T15:12:04.604Z,0.60
2022-09-20T15:15:04.615Z,0.80
2022-09-20T15:18:28.587Z,0.73
2022-09-20T15:21:28.630Z,0.80
2022-09-20T15:24:54.656Z,0.70
2022-09-20T15:28:07.660Z,0.60
2022-09-20T15:31:19.712Z,0.80
2022-09-20T15:34:31.669Z,0.70
2022-09-20T15:37:55.677Z,0.53
2022-09-20T15:41:08.677Z,0.53
2022-09-20T15:44:32.670Z,0.50
2022-09-20T15:47:33.715Z,1.00
2022-09-20T15:50:46.720Z,0.60
2022-09-20T15:53:58.715Z,1.07
2022-09-20T15:57:24.724Z,0.77
2022-09-20T16:00:39.827Z,0.63
2022-09-20T16:03:51.797Z,0.90
2022-09-20T16:07:03.730Z,0.73
2022-09-20T16:10:17.753Z,0.60
2022-09-20T16:13:30.826Z,0.77
2022-09-20T16:16:56.688Z,0.80
2022-09-20T16:20:08.791Z,0.70
2022-09-20T16:23:24.092Z,0.90
2022-09-20T16:26:24.823Z,0.60
2022-09-20T16:29:50.825Z,0.60
2022-09-20T16:32:50.833Z,1.00
2022-09-20T16:36:05.869Z,0.80
2022-09-20T16:39:17.861Z,0.57
2022-09-20T16:42:33.871Z,0.53
2022-09-20T16:45:47.921Z,0.70
2022-09-20T16:49:11.893Z,0.60
2022-09-20T16:52:26.913Z,0.90
2022-09-20T16:55:41.944Z,1.00
2022-09-20T16:58:53.926Z,0.57
2022-09-20T17:02:19.923Z,0.90
2022-09-20T17:05:32.940Z,0.60
2022-09-20T17:08:59.201Z,0.70
2022-09-20T17:12:08.936Z,1.10
2022-09-20T17:15:32.957Z,0.80
2022-09-20T17:18:46.939Z,1.00
2022-09-20T17:22:11.019Z,0.97
2022-09-20T17:25:11.005Z,0.85
2022-09-20T17:28:27.023Z,0.75
2022-09-20T17:31:42.059Z,0.73
2022-09-20T17:35:12.054Z,0.50
2022-09-20T17:38:12.083Z,1.10
2022-09-20T17:41:39.051Z,0.65
2022-09-20T17:44:51.044Z,0.80
2022-09-20T17:48:04.082Z,1.37
2022-09-20T17:51:23.070Z,1.20
2022-09-20T17:54:47.206Z,0.50
2022-09-20T17:57:47.050Z,0.87
2022-09-20T18:00:59.168Z,1.27
2022-09-20T18:04:23.105Z,0.90
2022-09-20T18:07:37.174Z,0.83
2022-09-20T18:10:56.221Z,0.60
2022-09-20T18:14:08.155Z,0.90
2022-09-20T18:17:32.154Z,0.80
2022-09-20T18:20:32.187Z,0.85
2022-09-20T18:23:58.173Z,0.80
2022-09-20T18:26:58.254Z,1.30
2022-09-20T18:30:10.230Z,0.90
2022-09-20T18:33:10.164Z,0.80
2022-09-20T18:36:22.247Z,0.77
2022-09-20T18:39:35.217Z,0.95
2022-09-20T18:42:47.236Z,1.33
2022-09-20T18:45:47.407Z,0.90
2022-09-20T18:48:59.251Z,0.53
2022-09-20T18:51:59.276Z,0.80
2022-09-20T18:55:25.283Z,1.10
2022-09-20T18:58:40.296Z,0.70
2022-09-20T19:02:07.329Z,0.95
2022-09-20T19:05:25.351Z,0.80
2022-09-20T19:08:49.335Z,1.10
2022-09-20T19:12:03.328Z,1.53
2022-09-20T19:15:30.349Z,1.00
2022-09-20T19:18:55.345Z,1.20
2022-09-20T19:22:23.402Z,1.15
2022-09-20T19:25:38.374Z,1.10
2022-09-20T19:29:04.384Z,1.20
2022-09-20T19:32:19.404Z,1.10
2022-09-20T19:35:49.260Z,1.13
2022-09-20T19:38:58.398Z,1.00
2022-09-20T19:42:23.518Z,1.33
2022-09-20T19:45:38.437Z,1.20
2022-09-20T19:49:03.430Z,1.20
2022-09-20T19:52:04.475Z,1.20
2022-09-20T19:55:17.435Z,1.83
2022-09-20T19:58:29.592Z,1.30
2022-09-20T20:01:55.525Z,1.40
2022-09-20T20:05:08.525Z,1.90
2022-09-20T20:08:23.522Z,1.77
2022-09-20T20:11:50.545Z,1.70
2022-09-20T20:15:03.589Z,1.60
2022-09-20T20:18:29.576Z,1.80
2022-09-20T20:21:41.541Z,1.90
2022-09-20T20:25:06.567Z,1.73
2022-09-20T20:28:06.590Z,1.80
2022-09-20T20:31:20.632Z,1.87
2022-09-20T20:34:38.588Z,1.93
2022-09-20T20:37:51.609Z,1.65
2022-09-20T20:40:53.629Z,2.10
2022-09-20T20:44:18.686Z,2.10
2022-09-20T20:47:30.640Z,1.90
2022-09-20T20:50:56.641Z,1.90
2022-09-20T20:54:08.711Z,2.17
2022-09-20T20:57:20.793Z,2.00
2022-09-20T21:00:21.669Z,1.90
2022-09-20T21:03:33.717Z,2.27
2022-09-20T21:06:47.709Z,2.03
2022-09-20T21:09:59.739Z,1.95
2022-09-20T21:13:11.727Z,1.97
2022-09-20T21:16:35.729Z,1.80
2022-09-20T21:19:35.705Z,1.90
2022-09-20T21:23:01.719Z,2.10
2022-09-20T21:26:01.887Z,1.50
2022-09-20T21:29:28.785Z,1.80
2022-09-20T21:32:28.851Z,1.73
2022-09-20T21:35:40.774Z,1.73
2022-09-20T21:38:54.831Z,1.50
2022-09-20T21:42:06.775Z,1.70
2022-09-20T21:45:06.773Z,2.03
2022-09-20T21:48:18.809Z,2.00
2022-09-20T21:51:42.853Z,1.90
2022-09-20T21:55:08.840Z,2.03
2022-09-20T21:58:08.875Z,1.97
2022-09-20T22:01:32.890Z,1.90
2022-09-20T22:05:03.886Z,2.40
2022-09-20T22:08:18.896Z,1.45
2022-09-20T22:11:44.915Z,1.50
2022-09-20T22:14:44.896Z,1.97
2022-09-20T22:17:56.937Z,1.60
2022-09-20T22:20:58.082Z,1.87
2022-09-20T22:24:23.982Z,1.60
2022-09-20T22:27:37.992Z,1.43
2022-09-20T22:30:54.085Z,1.50
2022-09-20T22:34:06.023Z,1.70
2022-09-20T22:37:22.163Z,1.93
2022-09-20T22:40:23.068Z,1.70
2022-09-20T22:43:51.002Z,1.90
2022-09-20T22:46:55.027Z,1.60
2022-09-20T22:50:09.074Z,1.47
2022-09-20T22:53:22.109Z,1.70
2022-09-20T22:56:47.090Z,1.90
2022-09-20T23:00:01.229Z,1.43
2022-09-20T23:03:17.111Z,1.50
2022-09-20T23:06:29.154Z,1.60
2022-09-20T23:09:41.120Z,1.40
2022-09-20T23:12:41.168Z,1.70
2022-09-20T23:16:08.147Z,1.10
2022-09-20T23:19:20.121Z,1.80
2022-09-20T23:22:34.151Z,1.30
2022-09-20T23:25:34.170Z,1.53
2022-09-20T23:28:59.175Z,1.73
2022-09-20T23:32:13.168Z,1.50
2022-09-20T23:35:26.199Z,1.30
2022-09-20T23:38:38.241Z,1.40
2022-09-20T23:42:02.192Z,1.37
2022-09-20T23:45:03.217Z,1.43
2022-09-20T23:48:30.231Z,1.30
2022-09-20T23:51:42.274Z,1.33
2022-09-20T23:54:56.288Z,1.50
2022-09-20T23:57:56.270Z,1.00
